Greenburgh, New York
Current Conditions -  °F | °C
As of 6:56 PM on Saturday 25 Oct 2014 (Local Time) from KHPN Reporting Station
Few Clouds Few Clouds  
Wind Chill: 16°   Ceiling: Unl
Heat Index: 16°   Visibility: 10mi
Dew Point:   Wind: 0mph
Humidity: 53%   Direction: NA
Pressure: 29.63"   Gusts: NA
Location:  41.0404°N, 73.8014°W
Report Text: KHPN 252256Z 00000KT 10SM FEW075 16/06 A2963 RMK AO2 SLP032 T01560061
Loading
Personal Weather Stations






























Interactive Weather Map
Tropical Storm Tracking
New forecast layout! Learn more

10-Day Weather Forecast

Advertisements
Track Severe Weather on mobile